Wetterdaten: aktuell Mittwoch, 23.07.2014 19:00
Datum Zeit Temperatur Feuchte Luftdruck Regen Wind Richtung Richtung Taupunkt Windchill
23.07.2014 19:00 28,6 C 54 % 1014,5 hPa 0,0 l/m 24,0 km/h (4 Bft) N67.5 10 18,4 C 28,6 C
23.07.2014 18:00 30,2 C 51 % 1014,3 hPa 0,0 l/m 26,3 km/h (4 Bft) N45 10 18,9 C 30,2 C
23.07.2014 17:00 30,8 C 51 % 1015,3 hPa 0,0 l/m 13,6 km/h (3 Bft) N67.5 10 19,5 C 30,8 C
23.07.2014 16:00 31,0 C 54 % 1015,3 hPa 0,0 l/m 24,5 km/h (4 Bft) N 360 20,6 C 31,0 C
23.07.2014 15:00 31,3 C 56 % 1015,3 hPa 0,0 l/m 27,5 km/h (4 Bft) N-NO67.5 15 21,4 C 31,3 C
23.07.2014 14:00 31,4 C 58 % 1016,3 hPa 0,0 l/m 28,9 km/h (5 Bft) N67.5 10 22,1 C 31,4 C
23.07.2014 13:00 30,3 C 63 % 1016,4 hPa 0,0 l/m 26,7 km/h (4 Bft) N67.5 355 22,4 C 30,3 C
23.07.2014 12:00 29,2 C 67 % 1016,5 hPa 0,0 l/m 19,3 km/h (3 Bft) N67.5 355 22,4 C 29,2 C
23.07.2014 11:00 28,1 C 71 % 1016,5 hPa 0,0 l/m 18,0 km/h (3 Bft) N22.5 360 22,3 C 28,1 C
23.07.2014 10:00 28,3 C 74 % 1017,5 hPa 0,0 l/m 13,8 km/h (3 Bft) N22.5 360 23,2 C 28,3 C
23.07.2014 09:00 28,2 C 80 % 1017,5 hPa 0,0 l/m 17,0 km/h (3 Bft) N-NO45 20 24,4 C 28,2 C
23.07.2014 08:00 27,3 C 84 % 1017,6 hPa 0,0 l/m 20,6 km/h (4 Bft) N-NO45 25 24,3 C 27,3 C
23.07.2014 07:00 27,2 C 86 % 1016,6 hPa 0,0 l/m 14,8 km/h (3 Bft) N-NO67.5 15 24,6 C 27,2 C
23.07.2014 06:00 26,7 C 86 % 1016,6 hPa 0,0 l/m 14,3 km/h (3 Bft) N-NO67.5 30 24,2 C 26,7 C
23.07.2014 04:54 27,3 C 86 % 1016,6 hPa 0,0 l/m 15,3 km/h (3 Bft) N-NO45 15 24,7 C 27,3 C
23.07.2014 03:54 25,9 C 86 % 1016,7 hPa 0,0 l/m 15,3 km/h (3 Bft) N-NO22.5 30 23,4 C 25,9 C
23.07.2014 02:54 26,9 C 85 % 1016,6 hPa 0,0 l/m 18,0 km/h (3 Bft) N-NO45 25 24,2 C 26,9 C
23.07.2014 01:54 26,5 C 84 % 1017,7 hPa 0,0 l/m 15,7 km/h (3 Bft) N-NO45 15 23,6 C 26,5 C
23.07.2014 00:54 26,7 C 84 % 1017,7 hPa 0,0 l/m 5,0 km/h (1 Bft) N 355 23,8 C 26,7 C
22.07.2014 23:54 26,1 C 82 % 1017,7 hPa 0,0 l/m 5,6 km/h (1 Bft) N-NW 330 22,8 C 26,1 C
22.07.2014 22:54 25,6 C 79 % 1017,7 hPa 0,0 l/m 9,3 km/h (2 Bft) N-NW22.5 345 21,7 C 25,6 C
22.07.2014 21:54 25,3 C 76 % 1017,8 hPa 0,0 l/m 10,6 km/h (2 Bft) N22.5 350 20,8 C 25,3 C
22.07.2014 20:54 26,1 C 71 % 1016,7 hPa 0,0 l/m 19,2 km/h (3 Bft) N-NW22.5 345 20,4 C 26,1 C
22.07.2014 20:00 26,6 C 68 % 1016,6 hPa 0,0 l/m 18,9 km/h (3 Bft) N67.5 355 20,2 C 26,6 C
_ Min-Zeit 21:39 17:06 17:33 - 22:21 - - 18:33 21:39
Minimum _ 25,2 C 50 % 1014,3 hPa - 2,6 km/h (1 Bft) - - 18,2 C 25,2 C
_ Max-Zeit 15:33 04:15 21:48 20:00 18:21 - - 05:00 15:33
Maximum _ 31,5 C 87 % 1017,8 hPa 0,0 l/m 39,6 km/h
N (6 Bft)
- - 24,8 C 31,5 C
Durchschnitt _ 27,9 C 72 % 1016,7 hPa #0,0 l/m 17,1 km/h (3 Bft) N - 22,2 C 27,9 C